Strona główna
METAR-TAF:

METAR-TAF

Lotnisko :

Port lotniczy Mendoza

Mendoza, Argentyna

Szerokość geograficzna: 32-50S, Długość geograficzna: 068-47W, wysokość: 705 m

Aktualna obserwacja pogody

Raport powstał 1 godzina i 1 minut temu, godzina 13:00 UTC
Wiatr 7 kt od północny wschód
Temperatura 25°C
Wilgotność 24%
Ciśnienie 1015 hPa
Widzialność 10 km lub więcej
Brak chmur poniżej 1500 m i brak chmur cumulonimbus

METAR: SAME 161300Z 05007KT CAVOK 25/03 Q1015

czas: 11:01 (14:01 UTC)

Prognoza

Raport powstał 3 godziny i 1 minut temu, godzina 11:00 UTC
Prognoza ważna od 16 godzina 12 UTC do 17 godzina 12 UTC
Wiatr 5 kt od południowy wschód
Widzialność 10 km lub więcej
Mało chmury na wysokości 4000 ft
Stopniowe zmiany
od 16 godzina 14 UTC do 16 godzina 16 UTC
Wiatr 10 kt od północno-północny wschód

TAF: SAME 161100Z 1612/1712 14005KT 9999 FEW040 TX31/1620Z TN17/1710Z BECMG 1614/1616 02010KT

Obserwacja i prognoza pogody dla ponad 4000 lotnisk (raport METAR i TAF).

Dostępne stacje oznaczono żółtymi i czerwonymi punktami na mapie.

Najedź kursorem aby zobaczyć nazwę stacji.

Kliknij aby zobaczyć obserwacje i prognozy pogody.

Aby zmienić mapę: kliknij na zielony przycisk z czarnym krzyżykiem, aby powiększyć; na zielony przycisk z myślnikiem, aby pomniejszyć; na zielone strzałki, aby przejść do map sąsiednich.


METAR-TAF: